createdAt,value
2022-08-26T00:01:55.544Z,94717.81
2022-08-26T00:04:25.353Z,94715.78
2022-08-26T00:06:56.624Z,94708.53
2022-08-26T00:09:25.253Z,94700.50
2022-08-26T00:11:53.474Z,94701.50
2022-08-26T00:14:21.687Z,94712.50
2022-08-26T00:16:49.002Z,94708.13
2022-08-26T00:19:20.408Z,94711.16
2022-08-26T00:21:48.731Z,94704.72
2022-08-26T00:24:18.192Z,94702.84
2022-08-26T00:26:45.537Z,94688.63
2022-08-26T00:29:13.751Z,94705.78
2022-08-26T00:31:42.700Z,94702.97
2022-08-26T00:34:12.388Z,94694.84
2022-08-26T00:36:40.935Z,94701.09
2022-08-26T00:39:08.373Z,94700.84
2022-08-26T00:41:38.687Z,94698.44
2022-08-26T00:44:05.991Z,94704.03
2022-08-26T00:46:36.962Z,94681.59
2022-08-26T00:49:11.693Z,94707.84
2022-08-26T00:51:56.322Z,94705.63
2022-08-26T00:54:27.313Z,94713.31
2022-08-26T00:57:02.505Z,94686.22
2022-08-26T00:59:33.158Z,94705.09
2022-08-26T01:02:02.950Z,94700.31
2022-08-26T01:04:33.515Z,94697.38
2022-08-26T01:07:00.999Z,94701.75
2022-08-26T01:09:28.324Z,94692.53
2022-08-26T01:11:59.168Z,94690.16
2022-08-26T01:14:29.976Z,94692.56
2022-08-26T01:16:57.146Z,94672.56
2022-08-26T01:19:31.130Z,94684.78
2022-08-26T01:22:14.255Z,94681.94
2022-08-26T01:24:41.776Z,94677.31
2022-08-26T01:27:12.524Z,94684.44
2022-08-26T01:29:42.774Z,94683.47
2022-08-26T01:32:14.551Z,94679.72
2022-08-26T01:34:41.707Z,94683.63
2022-08-26T01:37:17.095Z,94683.56
2022-08-26T01:39:48.861Z,94681.91
2022-08-26T01:42:17.737Z,94698.66
2022-08-26T01:44:54.095Z,94695.31
2022-08-26T01:47:24.311Z,94658.72
2022-08-26T01:49:54.535Z,94688.91
2022-08-26T01:52:28.656Z,94692.66
2022-08-26T01:54:58.921Z,94664.72
2022-08-26T01:57:26.681Z,94695.00
2022-08-26T01:59:58.460Z,94685.84
2022-08-26T02:02:26.307Z,94698.41
2022-08-26T02:04:59.565Z,94691.97
2022-08-26T02:07:27.791Z,94701.09
2022-08-26T02:09:55.115Z,94692.31
2022-08-26T02:12:22.385Z,94695.09
2022-08-26T02:14:55.827Z,94680.81
2022-08-26T02:17:44.662Z,94680.13
2022-08-26T02:20:15.716Z,94691.25
2022-08-26T02:22:45.253Z,94697.44
2022-08-26T02:25:25.140Z,94695.13
2022-08-26T02:27:52.575Z,94685.41
2022-08-26T02:30:24.977Z,94682.69
2022-08-26T02:32:54.864Z,94686.59
2022-08-26T02:35:23.839Z,94686.78
2022-08-26T02:37:52.009Z,94672.19
2022-08-26T02:40:25.924Z,94686.97
2022-08-26T02:42:55.868Z,94683.28
2022-08-26T02:45:24.662Z,94694.41
2022-08-26T02:47:52.469Z,94692.25
2022-08-26T02:50:20.619Z,94686.59
2022-08-26T02:52:48.574Z,94686.13
2022-08-26T02:55:16.003Z,94685.84
2022-08-26T02:57:45.197Z,94680.66
2022-08-26T03:00:14.843Z,94678.34
2022-08-26T03:02:41.859Z,94689.00
2022-08-26T03:05:09.983Z,94680.75
2022-08-26T03:07:37.108Z,94690.03
2022-08-26T03:10:08.534Z,94684.06
2022-08-26T03:12:36.127Z,94690.72
2022-08-26T03:15:03.363Z,94689.56
2022-08-26T03:17:46.624Z,94684.78
2022-08-26T03:20:15.488Z,94687.47
2022-08-26T03:22:42.892Z,94696.16
2022-08-26T03:25:12.203Z,94699.50
2022-08-26T03:27:39.154Z,94692.50
2022-08-26T03:30:25.664Z,94698.97
2022-08-26T03:32:53.496Z,94691.81
2022-08-26T03:35:20.335Z,94701.06
2022-08-26T03:37:49.425Z,94705.22
2022-08-26T03:40:16.551Z,94699.91
2022-08-26T03:42:47.829Z,94692.41
2022-08-26T03:45:17.128Z,94690.94
2022-08-26T03:47:44.778Z,94689.81
2022-08-26T03:50:15.116Z,94687.13
2022-08-26T03:52:44.027Z,94683.59
2022-08-26T03:55:11.406Z,94691.81
2022-08-26T03:57:38.132Z,94691.44
2022-08-26T04:00:08.907Z,94688.63
2022-08-26T04:02:35.807Z,94691.50
2022-08-26T04:05:02.941Z,94685.34
2022-08-26T04:07:31.953Z,94697.38
2022-08-26T04:09:59.400Z,94683.28
2022-08-26T04:12:26.246Z,94692.38
2022-08-26T04:14:53.843Z,94683.28
2022-08-26T04:17:25.089Z,94673.63
2022-08-26T04:19:53.605Z,94681.44
2022-08-26T04:22:24.847Z,94687.66
2022-08-26T04:24:52.388Z,94681.88
2022-08-26T04:27:19.484Z,94673.00
2022-08-26T04:29:47.789Z,94685.25
2022-08-26T04:32:16.498Z,94682.03
2022-08-26T04:34:43.391Z,94685.09
2022-08-26T04:37:12.267Z,94677.72
2022-08-26T04:39:39.144Z,94679.59
2022-08-26T04:42:06.347Z,94676.53
2022-08-26T04:44:35.974Z,94681.53
2022-08-26T04:47:04.713Z,94687.81
2022-08-26T04:49:35.477Z,94692.31
2022-08-26T04:52:04.140Z,94678.38
2022-08-26T04:54:31.627Z,94685.50
2022-08-26T04:56:59.534Z,94677.25
2022-08-26T04:59:26.493Z,94686.09
2022-08-26T05:01:57.360Z,94680.63
2022-08-26T05:04:24.413Z,94678.41
2022-08-26T05:06:54.840Z,94685.13
2022-08-26T05:09:25.441Z,94691.72
2022-08-26T05:11:52.504Z,94691.81
2022-08-26T05:14:23.313Z,94687.31
2022-08-26T05:16:50.535Z,94695.38
2022-08-26T05:19:18.904Z,94689.13
2022-08-26T05:21:47.839Z,94678.56
2022-08-26T05:24:15.785Z,94690.09
2022-08-26T05:26:44.545Z,94694.66
2022-08-26T05:29:11.948Z,94705.75
2022-08-26T05:31:38.829Z,94702.72
2022-08-26T05:34:05.996Z,94705.38
2022-08-26T05:36:36.388Z,94695.25
2022-08-26T05:39:05.902Z,94701.50
2022-08-26T05:41:36.295Z,94707.22
2022-08-26T05:44:08.495Z,94703.00
2022-08-26T05:46:37.252Z,94703.56
2022-08-26T05:49:06.116Z,94712.38
2022-08-26T05:51:42.096Z,94712.19
2022-08-26T05:54:10.455Z,94703.50
2022-08-26T05:56:38.870Z,94703.06
2022-08-26T05:59:06.659Z,94704.38
2022-08-26T06:01:42.540Z,94709.09
2022-08-26T06:04:10.011Z,94711.63
2022-08-26T06:06:41.195Z,94722.22
2022-08-26T06:09:10.958Z,94721.66
2022-08-26T06:11:38.934Z,94703.63
2022-08-26T06:14:07.914Z,94716.13
2022-08-26T06:16:38.740Z,94719.13
2022-08-26T06:19:11.496Z,94701.19
2022-08-26T06:21:40.390Z,94719.75
2022-08-26T06:24:30.137Z,94707.03
2022-08-26T06:27:01.180Z,94728.88
2022-08-26T06:29:30.022Z,94718.25
2022-08-26T06:31:58.114Z,94725.66
2022-08-26T06:34:30.266Z,94712.53
2022-08-26T06:36:59.763Z,94725.97
2022-08-26T06:39:30.800Z,94725.50
2022-08-26T06:41:59.021Z,94716.25
2022-08-26T06:44:27.867Z,94726.28
2022-08-26T06:46:55.003Z,94722.75
2022-08-26T06:49:26.839Z,94718.59
2022-08-26T06:51:59.405Z,94734.22
2022-08-26T06:54:32.230Z,94735.94
2022-08-26T06:57:00.227Z,94735.22
2022-08-26T06:59:27.046Z,94734.56
2022-08-26T07:01:54.688Z,94722.91
2022-08-26T07:04:23.093Z,94736.13
2022-08-26T07:06:52.295Z,94735.03
2022-08-26T07:09:21.863Z,94736.13
2022-08-26T07:11:49.565Z,94739.34
2022-08-26T07:14:19.291Z,94733.19
2022-08-26T07:16:49.294Z,94736.25
2022-08-26T07:19:29.966Z,94731.50
2022-08-26T07:22:03.810Z,94729.22
2022-08-26T07:24:33.259Z,94741.72
2022-08-26T07:27:05.970Z,94745.38
2022-08-26T07:29:34.427Z,94729.66
2022-08-26T07:32:01.565Z,94738.28
2022-08-26T07:34:29.103Z,94732.38
2022-08-26T07:36:57.249Z,94736.78
2022-08-26T07:39:26.597Z,94741.59
2022-08-26T07:41:54.021Z,94748.22
2022-08-26T07:44:21.381Z,94737.75
2022-08-26T07:46:52.321Z,94737.50
2022-08-26T07:49:25.148Z,94734.31
2022-08-26T07:51:54.454Z,94740.69
2022-08-26T07:54:27.151Z,94746.38
2022-08-26T07:56:55.910Z,94745.81
2022-08-26T07:59:23.354Z,94738.34
2022-08-26T08:01:50.334Z,94747.13
2022-08-26T08:04:20.142Z,94738.09
2022-08-26T08:06:52.568Z,94732.88
2022-08-26T08:09:19.724Z,94740.50
2022-08-26T08:11:49.754Z,94743.84
2022-08-26T08:14:18.268Z,94723.47
2022-08-26T08:16:51.051Z,94733.38
2022-08-26T08:19:21.378Z,94729.94
2022-08-26T08:21:48.865Z,94733.78
2022-08-26T08:24:16.904Z,94739.88
2022-08-26T08:26:43.799Z,94729.16
2022-08-26T08:29:10.587Z,94738.03
2022-08-26T08:31:56.924Z,94731.44
2022-08-26T08:34:26.509Z,94727.94
2022-08-26T08:36:54.618Z,94734.59
2022-08-26T08:39:22.328Z,94728.34
2022-08-26T08:42:25.738Z,94726.81
2022-08-26T08:44:55.786Z,94727.59
2022-08-26T08:47:35.895Z,94719.06
2022-08-26T08:50:17.165Z,94711.34
2022-08-26T08:52:49.965Z,94714.41
2022-08-26T08:55:18.169Z,94713.22
2022-08-26T08:57:45.341Z,94710.53
2022-08-26T09:00:18.134Z,94717.50
2022-08-26T09:03:03.520Z,94711.72
2022-08-26T09:05:40.163Z,94703.56
2022-08-26T09:08:23.244Z,94706.22
2022-08-26T09:11:00.427Z,94707.44
2022-08-26T09:13:29.189Z,94702.78
2022-08-26T09:16:20.286Z,94703.56
2022-08-26T09:19:05.994Z,94706.34
2022-08-26T09:21:33.253Z,94701.25
2022-08-26T09:24:00.690Z,94697.38
2022-08-26T09:26:39.005Z,94692.63
2022-08-26T09:29:14.431Z,94689.69
2022-08-26T09:31:41.578Z,94688.88
2022-08-26T09:34:21.133Z,94682.47
2022-08-26T09:36:59.758Z,94685.56
2022-08-26T09:39:37.801Z,94675.34
2022-08-26T09:42:10.936Z,94681.06
2022-08-26T09:45:08.368Z,94685.19
2022-08-26T09:47:57.077Z,94686.00
2022-08-26T09:50:36.337Z,94676.75
2022-08-26T09:53:28.782Z,94682.16
2022-08-26T09:56:17.227Z,94689.22
2022-08-26T09:58:47.342Z,94686.63
2022-08-26T10:01:32.322Z,94681.25
2022-08-26T10:04:20.827Z,94681.94
2022-08-26T10:06:59.822Z,94674.50
2022-08-26T10:09:28.868Z,94671.31
2022-08-26T10:12:06.645Z,94675.88
2022-08-26T10:17:30.883Z,94666.09
2022-08-26T10:20:26.426Z,94677.34
2022-08-26T10:23:11.044Z,94667.28
2022-08-26T10:25:49.016Z,94663.66
2022-08-26T10:28:37.461Z,94662.56
2022-08-26T10:31:16.575Z,94658.84
2022-08-26T10:33:47.311Z,94665.00
2022-08-26T10:36:52.374Z,94660.69
2022-08-26T10:39:26.940Z,94658.78
2022-08-26T10:42:01.539Z,94662.28
2022-08-26T10:44:33.095Z,94662.69
2022-08-26T10:47:12.875Z,94657.63
2022-08-26T10:49:42.239Z,94664.69
2022-08-26T10:52:17.942Z,94665.25
2022-08-26T10:55:21.164Z,94665.16
2022-08-26T10:57:57.195Z,94664.91
2022-08-26T11:01:01.046Z,94653.66
2022-08-26T11:03:43.568Z,94657.97
2022-08-26T11:06:19.515Z,94645.78
2022-08-26T11:08:50.890Z,94653.44
2022-08-26T11:11:38.310Z,94653.72
2022-08-26T11:14:46.042Z,94653.69
2022-08-26T11:17:46.702Z,94650.22
2022-08-26T11:20:22.431Z,94643.66
2022-08-26T11:22:52.467Z,94642.94
2022-08-26T11:25:30.913Z,94638.31
2022-08-26T11:27:59.851Z,94635.63
2022-08-26T11:30:58.019Z,94634.69
2022-08-26T11:33:43.921Z,94634.13
2022-08-26T11:36:28.017Z,94636.16
2022-08-26T11:38:55.153Z,94634.22
2022-08-26T11:41:24.361Z,94635.28
2022-08-26T11:43:52.307Z,94620.94
2022-08-26T11:46:28.663Z,94613.34
2022-08-26T11:49:06.734Z,94627.88
2022-08-26T11:51:40.073Z,94630.09
2022-08-26T11:54:11.440Z,94624.56
2022-08-26T11:56:40.447Z,94622.50
2022-08-26T11:59:11.492Z,94610.00
2022-08-26T12:01:43.302Z,94614.50
2022-08-26T12:04:17.482Z,94612.81
2022-08-26T12:06:51.115Z,94603.56
2022-08-26T12:09:30.728Z,94617.38
2022-08-26T12:12:12.107Z,94604.97
2022-08-26T12:14:39.701Z,94607.44
2022-08-26T12:17:30.100Z,94598.78
2022-08-26T12:19:57.183Z,94596.88
2022-08-26T12:22:27.403Z,94591.22
2022-08-26T12:25:00.921Z,94594.47
2022-08-26T12:27:53.085Z,94588.63
2022-08-26T12:30:26.031Z,94582.53
2022-08-26T12:33:19.337Z,94580.16
2022-08-26T12:35:54.326Z,94580.09
2022-08-26T12:38:26.011Z,94585.25
2022-08-26T12:40:53.068Z,94584.53
2022-08-26T12:43:49.228Z,94589.34
2022-08-26T12:46:24.468Z,94587.28
2022-08-26T12:48:51.367Z,94593.59
2022-08-26T12:51:29.565Z,94588.00
2022-08-26T12:53:58.066Z,94585.25
2022-08-26T12:56:24.792Z,94586.72
2022-08-26T12:59:26.271Z,94582.88
2022-08-26T13:01:56.876Z,94585.00
2022-08-26T13:04:46.440Z,94577.56
2022-08-26T13:07:27.450Z,94587.91
2022-08-26T13:09:57.263Z,94583.22
2022-08-26T13:12:37.240Z,94579.91
2022-08-26T13:15:06.419Z,94583.06
2022-08-26T13:17:35.766Z,94572.03
2022-08-26T13:20:04.440Z,94565.34
2022-08-26T13:22:32.037Z,94564.03
2022-08-26T13:24:58.997Z,94561.84
2022-08-26T13:27:27.175Z,94557.56
2022-08-26T13:29:57.098Z,94556.19
2022-08-26T13:32:27.505Z,94555.38
2022-08-26T13:34:56.500Z,94558.28
2022-08-26T13:37:34.308Z,94555.81
2022-08-26T13:40:06.033Z,94556.19
2022-08-26T13:42:32.960Z,94541.09
2022-08-26T13:45:01.628Z,94551.09
2022-08-26T13:47:28.811Z,94558.19
2022-08-26T13:49:56.393Z,94557.91
2022-08-26T13:52:30.090Z,94550.66
2022-08-26T13:55:00.239Z,94540.09
2022-08-26T13:57:29.971Z,94551.09
2022-08-26T13:59:59.111Z,94551.44
2022-08-26T14:02:27.735Z,94552.22
2022-08-26T14:04:55.309Z,94544.03
2022-08-26T14:07:22.696Z,94555.78
2022-08-26T14:09:49.667Z,94547.63
2022-08-26T14:12:16.707Z,94561.56
2022-08-26T14:14:43.692Z,94556.69
2022-08-26T14:17:14.093Z,94544.78
2022-08-26T14:19:45.092Z,94535.44
2022-08-26T14:22:13.155Z,94543.66
2022-08-26T14:24:39.957Z,94542.78
2022-08-26T14:27:06.948Z,94542.00
2022-08-26T14:29:33.801Z,94543.91
2022-08-26T14:32:07.067Z,94545.41
2022-08-26T14:34:33.920Z,94545.56
2022-08-26T14:37:07.354Z,94542.75
2022-08-26T14:39:35.858Z,94550.19
2022-08-26T14:42:04.923Z,94541.88
2022-08-26T14:44:33.425Z,94524.66
2022-08-26T14:47:02.910Z,94550.69
2022-08-26T14:49:31.531Z,94550.09
2022-08-26T14:51:58.878Z,94549.03
2022-08-26T14:54:26.373Z,94553.84
2022-08-26T14:56:59.222Z,94553.19
2022-08-26T14:59:49.819Z,94552.47
2022-08-26T15:02:32.594Z,94550.03
2022-08-26T15:05:02.260Z,94547.97
2022-08-26T15:07:29.021Z,94541.00
2022-08-26T15:09:56.087Z,94543.78
2022-08-26T15:12:24.275Z,94544.84
2022-08-26T15:14:51.373Z,94534.00
2022-08-26T15:17:18.140Z,94547.94
2022-08-26T15:19:44.970Z,94528.50
2022-08-26T15:22:11.699Z,94551.00
2022-08-26T15:24:38.957Z,94543.13
2022-08-26T15:27:05.721Z,94544.03
2022-08-26T15:29:33.117Z,94552.91
2022-08-26T15:32:03.755Z,94554.31
2022-08-26T15:34:31.943Z,94553.66
2022-08-26T15:36:58.825Z,94545.66
2022-08-26T15:39:26.153Z,94548.00
2022-08-26T15:41:52.968Z,94551.22
2022-08-26T15:44:19.778Z,94550.72
2022-08-26T15:46:49.225Z,94553.03
2022-08-26T15:49:18.504Z,94547.53
2022-08-26T15:51:47.836Z,94545.16
2022-08-26T15:54:16.746Z,94541.47
2022-08-26T15:56:44.122Z,94548.75
2022-08-26T15:59:11.887Z,94545.53
2022-08-26T16:01:39.568Z,94544.88
2022-08-26T16:04:06.911Z,94543.50
2022-08-26T16:06:36.765Z,94542.94
2022-08-26T16:09:04.993Z,94534.63
2022-08-26T16:11:31.778Z,94536.91
2022-08-26T16:13:58.720Z,94546.88
2022-08-26T16:16:26.552Z,94547.09
2022-08-26T16:18:53.889Z,94535.19
2022-08-26T16:21:27.853Z,94538.22
2022-08-26T16:23:56.156Z,94541.84
2022-08-26T16:26:28.445Z,94543.88
2022-08-26T16:28:55.350Z,94537.03
2022-08-26T16:31:22.384Z,94513.81
2022-08-26T16:33:49.854Z,94536.41
2022-08-26T16:36:17.046Z,94546.31
2022-08-26T16:38:55.481Z,94543.44
2022-08-26T16:41:25.116Z,94544.88
2022-08-26T16:43:52.054Z,94547.03
2022-08-26T16:46:19.339Z,94545.59
2022-08-26T16:48:48.843Z,94499.97
2022-08-26T16:51:18.907Z,94536.03
2022-08-26T16:53:47.082Z,94549.81
2022-08-26T16:56:20.262Z,94541.69
2022-08-26T16:58:48.683Z,94544.28
2022-08-26T17:01:16.805Z,94542.09
2022-08-26T17:03:43.961Z,94534.19
2022-08-26T17:06:11.097Z,94550.81
2022-08-26T17:08:39.863Z,94552.69
2022-08-26T17:11:08.425Z,94554.13
2022-08-26T17:13:36.219Z,94553.41
2022-08-26T17:16:05.735Z,94558.19
2022-08-26T17:18:33.454Z,94554.91
2022-08-26T17:21:06.403Z,94561.25
2022-08-26T17:23:33.371Z,94546.63
2022-08-26T17:26:00.258Z,94560.50
2022-08-26T17:28:27.048Z,94565.16
2022-08-26T17:30:57.048Z,94563.53
2022-08-26T17:33:25.274Z,94558.06
2022-08-26T17:35:53.119Z,94566.56
2022-08-26T17:38:21.242Z,94569.13
2022-08-26T17:40:48.535Z,94567.84
2022-08-26T17:43:15.866Z,94568.47
2022-08-26T17:45:43.439Z,94574.41
2022-08-26T17:48:11.361Z,94586.34
2022-08-26T17:50:42.984Z,94590.50
2022-08-26T17:53:18.955Z,94582.16
2022-08-26T17:55:48.001Z,94594.56
2022-08-26T17:58:16.097Z,94598.50
2022-08-26T18:00:49.377Z,94592.88
2022-08-26T18:03:16.623Z,94591.66
2022-08-26T18:05:48.058Z,94585.75
2022-08-26T18:08:14.985Z,94593.22
2022-08-26T18:10:43.540Z,94600.50
2022-08-26T18:13:13.566Z,94603.09
2022-08-26T18:15:41.571Z,94605.47
2022-08-26T18:18:08.822Z,94604.69
2022-08-26T18:20:38.759Z,94597.03
2022-08-26T18:23:05.962Z,94620.84
2022-08-26T18:25:33.461Z,94609.28
2022-08-26T18:28:03.236Z,94615.56
2022-08-26T18:30:31.544Z,94609.38
2022-08-26T18:32:58.727Z,94615.50
2022-08-26T18:35:28.535Z,94602.41
2022-08-26T18:37:58.548Z,94617.88
2022-08-26T18:40:39.107Z,94613.38
2022-08-26T18:43:05.937Z,94619.00
2022-08-26T18:45:32.827Z,94625.53
2022-08-26T18:47:59.748Z,94623.25
2022-08-26T18:50:26.577Z,94634.88
2022-08-26T18:52:53.627Z,94621.28
2022-08-26T18:55:20.686Z,94631.31
2022-08-26T18:57:47.588Z,94632.31
2022-08-26T19:00:14.785Z,94635.06
2022-08-26T19:02:41.758Z,94634.75
2022-08-26T19:05:14.565Z,94632.41
2022-08-26T19:07:43.062Z,94623.09
2022-08-26T19:10:12.655Z,94635.31
2022-08-26T19:12:39.831Z,94636.66
2022-08-26T19:15:07.954Z,94634.38
2022-08-26T19:17:34.921Z,94635.78
2022-08-26T19:20:04.738Z,94639.66
2022-08-26T19:22:31.664Z,94635.59
2022-08-26T19:24:58.575Z,94637.09
2022-08-26T19:27:25.397Z,94637.13
2022-08-26T19:29:52.440Z,94638.91
2022-08-26T19:32:24.184Z,94646.25
2022-08-26T19:34:52.201Z,94651.78
2022-08-26T19:37:20.230Z,94644.34
2022-08-26T19:39:47.944Z,94648.28
2022-08-26T19:42:14.693Z,94641.50
2022-08-26T19:45:00.213Z,94643.63
2022-08-26T19:47:27.310Z,94639.34
2022-08-26T19:49:55.671Z,94638.16
2022-08-26T19:52:24.181Z,94649.03
2022-08-26T19:54:57.908Z,94648.69
2022-08-26T19:57:24.926Z,94646.75
2022-08-26T19:59:52.823Z,94647.69
2022-08-26T20:02:20.752Z,94648.31
2022-08-26T20:04:47.707Z,94640.78
2022-08-26T20:07:18.125Z,94645.28
2022-08-26T20:09:46.807Z,94651.03
2022-08-26T20:12:14.018Z,94647.13
2022-08-26T20:14:41.744Z,94644.22
2022-08-26T20:17:08.803Z,94628.63
2022-08-26T20:19:54.579Z,94657.94
2022-08-26T20:22:22.148Z,94650.69
2022-08-26T20:24:49.443Z,94649.53
2022-08-26T20:27:16.337Z,94654.78
2022-08-26T20:29:43.084Z,94650.47
2022-08-26T20:32:11.969Z,94649.47
2022-08-26T20:34:40.009Z,94648.38
2022-08-26T20:37:08.463Z,94647.97
2022-08-26T20:39:35.374Z,94608.13
2022-08-26T20:42:03.121Z,94648.34
2022-08-26T20:44:30.065Z,94654.41
2022-08-26T20:46:57.245Z,94657.16
2022-08-26T20:49:23.991Z,94656.00
2022-08-26T20:51:51.485Z,94657.72
2022-08-26T20:54:22.126Z,94654.34
2022-08-26T20:56:51.469Z,94656.78
2022-08-26T20:59:18.924Z,94653.78
2022-08-26T21:01:46.883Z,94663.47
2022-08-26T21:04:17.919Z,94661.38
2022-08-26T21:06:52.300Z,94656.44
2022-08-26T21:09:22.032Z,94661.69
2022-08-26T21:11:49.995Z,94667.31
2022-08-26T21:14:17.677Z,94666.97
2022-08-26T21:16:45.731Z,94654.00
2022-08-26T21:19:17.536Z,94651.53
2022-08-26T21:21:46.266Z,94662.34
2022-08-26T21:24:13.720Z,94668.03
2022-08-26T21:26:40.721Z,94662.97
2022-08-26T21:29:09.828Z,94656.34
2022-08-26T21:31:42.304Z,94661.38
2022-08-26T21:34:12.867Z,94659.41
2022-08-26T21:36:39.924Z,94673.59
2022-08-26T21:39:11.239Z,94670.81
2022-08-26T21:41:40.181Z,94670.47
2022-08-26T21:44:07.024Z,94669.00
2022-08-26T21:46:37.232Z,94665.00
2022-08-26T21:49:07.424Z,94679.72
2022-08-26T21:51:37.760Z,94675.66
2022-08-26T21:54:10.550Z,94678.84
2022-08-26T21:56:40.853Z,94683.72
2022-08-26T21:59:09.055Z,94675.56
2022-08-26T22:01:36.572Z,94691.44
2022-08-26T22:04:05.343Z,94680.19
2022-08-26T22:06:34.915Z,94691.13
2022-08-26T22:09:01.662Z,94684.97
2022-08-26T22:11:28.845Z,94687.63
2022-08-26T22:13:56.896Z,94681.44
2022-08-26T22:16:24.998Z,94684.66
2022-08-26T22:18:53.379Z,94686.44
2022-08-26T22:21:24.271Z,94684.06
2022-08-26T22:23:51.420Z,94681.88
2022-08-26T22:26:25.359Z,94687.25
2022-08-26T22:28:57.471Z,94687.56
2022-08-26T22:31:37.008Z,94686.59
2022-08-26T22:34:07.994Z,94689.75
2022-08-26T22:36:35.403Z,94690.03
2022-08-26T22:39:04.758Z,94697.03
2022-08-26T22:41:32.678Z,94687.00
2022-08-26T22:44:02.604Z,94693.13
2022-08-26T22:46:29.556Z,94695.00
2022-08-26T22:48:56.543Z,94686.13
2022-08-26T22:51:23.477Z,94693.84
2022-08-26T22:53:50.360Z,94694.84
2022-08-26T22:56:19.050Z,94698.66
2022-08-26T22:58:46.068Z,94706.63
2022-08-26T23:01:13.748Z,94702.47
2022-08-26T23:03:41.350Z,94687.72
2022-08-26T23:06:12.308Z,94695.38
2022-08-26T23:08:40.391Z,94699.31
2022-08-26T23:11:09.390Z,94688.88
2022-08-26T23:13:36.521Z,94687.50
2022-08-26T23:16:06.965Z,94693.03
2022-08-26T23:18:33.975Z,94687.25
2022-08-26T23:21:00.808Z,94687.00
2022-08-26T23:23:27.800Z,94689.25
2022-08-26T23:25:55.759Z,94694.78
2022-08-26T23:28:23.031Z,94694.75
2022-08-26T23:30:50.299Z,94698.69
2022-08-26T23:33:17.068Z,94705.06
2022-08-26T23:35:44.013Z,94700.75
2022-08-26T23:38:11.181Z,94693.16
2022-08-26T23:40:41.301Z,94692.34
2022-08-26T23:43:11.383Z,94690.34
2022-08-26T23:45:38.746Z,94701.81
2022-08-26T23:48:06.490Z,94703.78
2022-08-26T23:50:52.294Z,94706.78
2022-08-26T23:53:21.902Z,94696.75
2022-08-26T23:55:51.904Z,94693.47
2022-08-26T23:58:20.866Z,94700.41
